Time;durP1;ratioP1;P1;durP2;ratioP2;P2;SDS_P1;SDS_P2;PMS_P1;PMS_P2;Temp;Humidity;BMP_temperature;BMP_pressure;BME280_temperature;BME280_humidity;BME280_pressure;Samples;Min_cycle;Max_cycle;Signal;HPM_P1;HPM_P2
2023/07/30 00:00:24;;;;;;;12.18;5.47;;;;;;;;;;5062528;28;20040;-78
2023/07/30 00:02:50;;;;;;;16.40;5.68;;;;;;;;;;5046649;28;20139;-76
2023/07/30 00:05:16;;;;;;;11.48;5.32;;;;;;;;;;5062875;28;20052;-78
2023/07/30 00:07:43;;;;;;;11.02;5.60;;;;;;;;;;5062589;28;20577;-78
2023/07/30 00:10:09;;;;;;;15.07;5.00;;;;;;;;;;5045286;28;20062;-77
2023/07/30 00:12:35;;;;;;;10.15;5.35;;;;;;;;;;5045259;28;20054;-76
2023/07/30 00:15:01;;;;;;;10.23;4.80;;;;;;;;;;5063201;28;20131;-77
2023/07/30 00:17:27;;;;;;;11.15;4.68;;;;;;;;;;5061469;28;20050;-77
2023/07/30 00:19:53;;;;;;;13.90;5.57;;;;;;;;;;5045130;28;20718;-78
2023/07/30 00:22:19;;;;;;;9.63;5.10;;;;;;;;;;5057632;28;20131;-78
2023/07/30 00:24:45;;;;;;;14.98;5.43;;;;;;;;;;5046402;28;20044;-78
2023/07/30 00:27:11;;;;;;;9.85;4.78;;;;;;;;;;5062308;28;20047;-78
2023/07/30 00:29:38;;;;;;;14.45;5.25;;;;;;;;;;5062713;28;20140;-78
2023/07/30 00:32:04;;;;;;;17.10;5.88;;;;;;;;;;5045890;28;20056;-77
2023/07/30 00:34:30;;;;;;;13.45;5.65;;;;;;;;;;5062485;28;20102;-78
2023/07/30 00:36:56;;;;;;;18.45;4.60;;;;;;;;;;5061700;28;20138;-76
2023/07/30 00:39:22;;;;;;;17.15;6.28;;;;;;;;;;5063271;28;20099;-78
2023/07/30 00:41:49;;;;;;;16.92;5.05;;;;;;;;;;5062752;28;20079;-78
2023/07/30 00:44:15;;;;;;;17.45;4.28;;;;;;;;;;5063128;28;20131;-77
2023/07/30 00:46:41;;;;;;;15.80;5.18;;;;;;;;;;5061991;28;20122;-78
2023/07/30 00:49:07;;;;;;;18.48;5.88;;;;;;;;;;5062458;28;20058;-78
2023/07/30 00:51:34;;;;;;;16.92;4.80;;;13.20;99.90;;;;;;5062904;28;20046;-79
2023/07/30 00:54:00;;;;;;;19.65;5.57;;;13.20;99.90;;;;;;5058527;28;20047;-78
2023/07/30 00:56:27;;;;;;;16.55;5.10;;;13.20;99.90;;;;;;5061356;28;20047;-78
2023/07/30 00:58:53;;;;;;;14.80;5.28;;;;;;;;;;5062642;28;20048;-79
2023/07/30 01:01:19;;;;;;;13.57;4.35;;;;;;;;;;5062178;28;20975;-77
2023/07/30 01:03:46;;;;;;;14.75;4.75;;;;;;;;;;5062725;28;20051;-77
2023/07/30 01:06:12;;;;;;;17.15;4.90;;;;;;;;;;5062329;28;20155;-76
2023/07/30 01:08:38;;;;;;;20.00;6.13;;;;;;;;;;5061965;28;20043;-78
2023/07/30 01:11:05;;;;;;;22.35;5.00;;;13.10;99.90;;;;;;5061082;28;20044;-77
2023/07/30 01:13:33;;;;;;;17.73;6.28;;;13.00;99.90;;;;;;5062605;28;20117;-78
2023/07/30 01:15:59;;;;;;;11.27;4.80;;;;;;;;;;5042533;28;20537;-78
2023/07/30 01:18:25;;;;;;;18.67;5.43;;;;;;;;;;5061242;28;20048;-78
2023/07/30 01:20:57;;;;;;;18.15;5.03;;;13.00;99.90;;;;;;5059963;28;20112;-78
2023/07/30 01:23:23;;;;;;;16.90;4.85;;;;;;;;;;5051882;28;20048;-78
2023/07/30 01:25:55;;;;;;;17.20;4.97;;;12.90;99.90;;;;;;5058746;28;20071;-79
2023/07/30 01:28:22;;;;;;;18.33;5.15;;;12.90;99.90;;;;;;5074134;28;20059;-79
2023/07/30 01:30:49;;;;;;;16.30;4.75;;;12.80;99.90;;;;;;5060541;28;20051;-79
2023/07/30 01:33:15;;;;;;;20.98;5.38;;;;;;;;;;5059727;28;20048;-78
2023/07/30 01:35:43;;;;;;;18.45;4.78;;;12.80;99.90;;;;;;5060044;28;20109;-78
2023/07/30 01:38:10;;;;;;;13.55;4.40;;;12.80;99.90;;;;;;5029690;28;20126;-79
2023/07/30 01:40:36;;;;;;;17.02;5.35;;;;;;;;;;5040801;28;20064;-79
2023/07/30 01:43:02;;;;;;;17.55;5.63;;;;;;;;;;5038579;28;20088;-78
2023/07/30 01:45:28;;;;;;;18.63;4.63;;;;;;;;;;5038475;28;20494;-77
2023/07/30 01:47:54;;;;;;;19.00;4.82;;;;;;;;;;5038621;28;20056;-78
2023/07/30 01:50:20;;;;;;;18.02;6.22;;;;;;;;;;5042287;28;20764;-76
2023/07/30 01:52:47;;;;;;;19.45;5.40;;;;;;;;;;5037938;28;20045;-81
2023/07/30 01:55:13;;;;;;;14.77;5.28;;;;;;;;;;5022165;28;20067;-83
2023/07/30 01:57:39;;;;;;;16.45;5.88;;;;;;;;;;5039280;28;20101;-82
2023/07/30 02:00:05;;;;;;;18.45;5.95;;;12.90;99.90;;;;;;5040330;28;20442;-79
2023/07/30 02:02:31;;;;;;;18.65;6.00;;;;;;;;;;5038814;28;20131;-78
2023/07/30 02:04:58;;;;;;;18.63;6.10;;;;;;;;;;5041000;28;20049;-78
2023/07/30 02:07:24;;;;;;;17.52;5.22;;;;;;;;;;5043227;28;20049;-78
2023/07/30 02:09:50;;;;;;;16.77;6.35;;;;;;;;;;5025319;28;20654;-81
2023/07/30 02:12:16;;;;;;;21.10;6.22;;;;;;;;;;5030482;28;20045;-80
2023/07/30 02:14:42;;;;;;;23.80;6.57;;;;;;;;;;5029080;28;20131;-78
2023/07/30 02:17:08;;;;;;;21.88;5.82;;;;;;;;;;5042270;28;20686;-78
2023/07/30 02:19:34;;;;;;;21.67;6.30;;;;;;;;;;5028603;28;20057;-78
2023/07/30 02:22:00;;;;;;;16.83;6.10;;;;;;;;;;5047542;28;20139;-78
2023/07/30 02:24:26;;;;;;;13.68;7.00;;;;;;;;;;5041800;28;20041;-79
2023/07/30 02:26:52;;;;;;;25.55;6.47;;;;;;;;;;5042340;28;20064;-76
2023/07/30 02:29:18;;;;;;;22.75;5.97;;;;;;;;;;5041442;28;20060;-78
2023/07/30 02:31:44;;;;;;;22.30;6.25;;;;;;;;;;5038966;28;20045;-82
2023/07/30 02:34:11;;;;;;;16.70;5.60;;;;;;;;;;5027487;28;20041;-77
2023/07/30 02:36:37;;;;;;;16.80;5.28;;;;;;;;;;5042414;28;20096;-78
2023/07/30 02:39:03;;;;;;;20.45;6.10;;;;;;;;;;5064892;28;20458;-75
2023/07/30 02:41:29;;;;;;;19.90;5.85;;;;;;;;;;5065172;28;20131;-79
2023/07/30 02:43:55;;;;;;;11.52;4.72;;;;;;;;;;5048343;28;20063;-81
2023/07/30 02:46:21;;;;;;;14.68;4.85;;;;;;;;;;5064176;28;20044;-78
2023/07/30 02:48:47;;;;;;;17.67;5.45;;;;;;;;;;5064618;28;20493;-78
2023/07/30 02:51:13;;;;;;;21.88;4.88;;;;;;;;;;5064461;28;20055;-78
2023/07/30 02:53:40;;;;;;;16.05;4.22;;;;;;;;;;5060135;28;20080;-78
2023/07/30 02:56:06;;;;;;;17.63;5.07;;;;;;;;;;5062960;28;20100;-77
2023/07/30 02:58:32;;;;;;;14.52;4.75;;;;;;;;;;5046976;28;20429;-79
2023/07/30 03:01:05;;;;;;;15.88;4.32;;;;;;;;;;5046018;28;20116;-79
2023/07/30 03:03:31;;;;;;;14.52;4.32;;;;;;;;;;5059871;28;20041;-79
2023/07/30 03:05:58;;;;;;;18.10;4.78;;;;;;;;;;5062434;28;20087;-79
2023/07/30 03:08:24;;;;;;;14.93;3.80;;;;;;;;;;5060304;28;20068;-78
2023/07/30 03:10:50;;;;;;;18.10;4.18;;;;;;;;;;5063409;28;20048;-81
2023/07/30 03:13:16;;;;;;;18.52;4.90;;;;;;;;;;5064251;28;20042;-82
2023/07/30 03:15:42;;;;;;;17.48;4.07;;;;;;;;;;5063324;28;20101;-78
2023/07/30 03:18:08;;;;;;;16.17;4.13;;;;;;;;;;5062493;28;20428;-84
2023/07/30 03:20:34;;;;;;;17.00;3.92;;;;;;;;;;5061932;28;20070;-81
2023/07/30 03:23:00;;;;;;;15.77;4.05;;;;;;;;;;5059223;28;20737;-80
2023/07/30 03:25:26;;;;;;;17.45;3.72;;;;;;;;;;5047061;28;20039;-79
2023/07/30 03:27:52;;;;;;;15.13;3.60;;;;;;;;;;5047485;28;20647;-79
2023/07/30 03:30:18;;;;;;;18.40;4.05;;;;;;;;;;5047405;28;20048;-79
2023/07/30 03:32:44;;;;;;;10.48;3.15;;;;;;;;;;5063070;28;20822;-81
2023/07/30 03:35:11;;;;;;;16.63;3.88;;;;;;;;;;5063053;28;20121;-82
2023/07/30 03:37:37;;;;;;;13.85;3.50;;;;;;;;;;5062771;28;20052;-79
2023/07/30 03:40:03;;;;;;;14.77;3.85;;;;;;;;;;5056839;28;20083;-79
2023/07/30 03:42:29;;;;;;;14.07;3.80;;;;;;;;;;5062911;28;20485;-81
2023/07/30 03:44:55;;;;;;;16.05;3.42;;;;;;;;;;5062809;28;20051;-82
2023/07/30 03:47:21;;;;;;;16.23;4.35;;;;;;;;;;5046089;28;20051;-80
2023/07/30 03:49:47;;;;;;;11.80;2.78;;;;;;;;;;5045771;28;21059;-83
2023/07/30 03:52:14;;;;;;;9.48;3.60;;;;;;;;;;5063178;28;20145;-81
2023/07/30 03:54:40;;;;;;;16.85;4.25;;;;;;;;;;5060708;28;20099;-78
2023/07/30 03:57:06;;;;;;;12.82;3.60;;;;;;;;;;5061913;28;20070;-79
2023/07/30 03:59:32;;;;;;;14.95;3.33;;;;;;;;;;5062213;28;20552;-80
2023/07/30 04:01:58;;;;;;;15.02;3.50;;;;;;;;;;5062494;28;20178;-80
2023/07/30 04:04:24;;;;;;;11.07;2.88;;;;;;;;;;5062692;28;20047;-81
2023/07/30 04:06:51;;;;;;;14.88;3.72;;;;;;;;;;5061869;28;21068;-83
2023/07/30 04:09:17;;;;;;;19.13;3.20;;;;;;;;;;5062735;28;20073;-79
2023/07/30 04:11:43;;;;;;;14.35;2.90;;;;;;;;;;5061578;28;20561;-81
2023/07/30 04:14:09;;;;;;;9.00;3.15;;;;;;;;;;5062590;28;20095;-81
2023/07/30 04:16:35;;;;;;;15.57;3.25;;;;;;;;;;5061765;28;20131;-80
2023/07/30 04:19:01;;;;;;;12.30;3.20;;;;;;;;;;5061268;28;20041;-80
2023/07/30 04:21:27;;;;;;;16.50;3.33;;;;;;;;;;5060419;28;20052;-82
2023/07/30 04:23:53;;;;;;;18.88;3.13;;;;;;;;;;5058572;28;20044;-81
2023/07/30 04:26:20;;;;;;;12.13;3.17;;;;;;;;;;5059224;28;20044;-81
2023/07/30 04:28:46;;;;;;;13.10;3.13;;;;;;;;;;5062353;28;21042;-81
2023/07/30 04:31:12;;;;;;;17.35;3.45;;;;;;;;;;5062351;28;20086;-79
2023/07/30 04:33:38;;;;;;;19.30;3.35;;;;;;;;;;5041873;28;20079;-78
2023/07/30 04:36:04;;;;;;;14.48;2.83;;;;;;;;;;5061973;28;20132;-79
2023/07/30 04:38:30;;;;;;;13.27;3.58;;;;;;;;;;5061545;28;20056;-79
2023/07/30 04:40:58;;;;;;;14.27;4.10;;;13.70;99.90;;;;;;5061857;28;20048;-80
2023/07/30 04:43:24;;;;;;;17.48;3.00;;;;;;;;;;5045636;28;20906;-82
2023/07/30 04:45:50;;;;;;;16.88;3.45;;;;;;;;;;5062477;28;20051;-80
2023/07/30 04:48:16;;;;;;;16.58;3.60;;;;;;;;;;5062095;28;20056;-80
2023/07/30 04:50:43;;;;;;;13.98;3.35;;;;;;;;;;5045245;28;20130;-79
2023/07/30 04:53:09;;;;;;;19.38;3.83;;;;;;;;;;5043401;28;20815;-82
2023/07/30 04:55:35;;;;;;;19.63;4.05;;;;;;;;;;5044734;28;20039;-79
2023/07/30 04:58:02;;;;;;;13.75;3.53;;;;;;;;;;5061789;28;20044;-80
2023/07/30 05:00:28;;;;;;;15.75;3.58;;;;;;;;;;5062332;28;20413;-81
2023/07/30 05:02:54;;;;;;;10.43;3.58;;;;;;;;;;5045336;28;20067;-79
2023/07/30 05:05:20;;;;;;;17.15;3.80;;;;;;;;;;5062606;28;20047;-79
2023/07/30 05:07:46;;;;;;;17.92;4.45;;;;;;;;;;5061865;28;20067;-81
2023/07/30 05:10:13;;;;;;;16.75;3.85;;;;;;;;;;5062384;28;20048;-79
2023/07/30 05:12:39;;;;;;;18.70;4.65;;;;;;;;;;5061290;28;20044;-79
2023/07/30 05:15:05;;;;;;;16.83;3.20;;;;;;;;;;5060333;28;20144;-79
2023/07/30 05:17:31;;;;;;;11.32;2.92;;;;;;;;;;5060233;28;20090;-80
2023/07/30 05:19:58;;;;;;;16.67;3.15;;;;;;;;;;5044222;28;20048;-80
2023/07/30 05:22:25;;;;;;;18.20;3.90;;;;;;;;;;5043158;28;20048;-78
2023/07/30 05:24:51;;;;;;;20.13;3.58;;;;;;;;;;5056409;28;20749;-80
2023/07/30 05:27:17;;;;;;;16.50;3.40;;;;;;;;;;5058280;28;20109;-80
2023/07/30 05:29:43;;;;;;;11.55;3.33;;;;;;;;;;5055911;28;20062;-80
2023/07/30 05:32:09;;;;;;;13.15;2.95;;;;;;;;;;5044555;28;20551;-79
2023/07/30 05:34:35;;;;;;;13.38;2.90;;;;;;;;;;5061272;28;20755;-79
2023/07/30 05:37:02;;;;;;;14.45;3.08;;;;;;;;;;5057367;28;20140;-79
2023/07/30 05:39:28;;;;;;;16.10;2.80;;;;;;;;;;5038693;28;20135;-81
2023/07/30 05:41:54;;;;;;;12.25;2.92;;;;;;;;;;5044811;28;20040;-79
2023/07/30 05:44:20;;;;;;;13.63;3.08;;;;;;;;;;5039263;28;20045;-81
2023/07/30 05:46:46;;;;;;;10.93;3.08;;;;;;;;;;5035326;28;20065;-79
2023/07/30 05:49:14;;;;;;;14.45;3.25;;;;;;;;;;5041124;28;20045;-79
2023/07/30 05:51:40;;;;;;;15.05;3.95;;;;;;;;;;5043328;28;20063;-82
2023/07/30 05:54:07;;;;;;;10.73;2.90;;;;;;;;;;5043497;28;20439;-79
2023/07/30 05:56:33;;;;;;;13.30;3.65;;;;;;;;;;5036974;28;20056;-80
2023/07/30 05:58:59;;;;;;;15.27;4.25;;;;;;;;;;5027926;28;20060;-80
2023/07/30 06:01:25;;;;;;;14.13;4.03;;;;;;;;;;5041586;28;20049;-80
2023/07/30 06:03:51;;;;;;;13.30;3.92;;;;;;;;;;5041430;28;20506;-79
2023/07/30 06:06:19;;;;;;;12.85;3.72;;;;;;;;;;5045545;28;20521;-81
2023/07/30 06:08:45;;;;;;;18.40;3.38;;;;;;;;;;5030371;28;20121;-80
2023/07/30 06:11:11;;;;;;;13.65;3.97;;;;;;;;;;5038529;28;20150;-79
2023/07/30 06:13:38;;;;;;;14.30;3.22;;;;;;;;;;5024928;28;20052;-80
2023/07/30 06:16:04;;;;;;;11.32;3.17;;;;;;;;;;5040778;28;21065;-79
2023/07/30 06:18:30;;;;;;;19.35;3.40;;;;;;;;;;5042639;28;20446;-78
2023/07/30 06:20:56;;;;;;;12.98;3.55;;;;;;;;;;5039664;28;20052;-79
2023/07/30 06:23:22;;;;;;;16.58;3.90;;;17.10;99.90;;;;;;5040350;28;20071;-79
2023/07/30 06:25:47;;;;;;;16.83;5.38;;;17.20;99.90;;;;;;5037880;28;20699;-79
2023/07/30 06:28:13;;;;;;;15.50;4.47;;;17.20;99.90;;;;;;5038216;28;20059;-78
2023/07/30 06:30:39;;;;;;;11.30;3.13;;;17.20;99.90;;;;;;5042117;28;20122;-78
2023/07/30 06:33:05;;;;;;;15.95;3.30;;;17.50;99.90;;;;;;5023482;28;20578;-81
2023/07/30 06:35:31;;;;;;;8.68;2.88;;;17.30;99.90;;;;;;5041296;28;20053;-79
2023/07/30 06:37:56;;;;;;;12.00;3.88;;;17.40;99.90;;;;;;5029503;28;20067;-79
2023/07/30 06:40:23;;;;;;;14.95;4.15;;;17.50;99.90;;;;;;5057476;28;20079;-79
2023/07/30 06:42:49;;;;;;;15.15;3.65;;;17.40;99.90;;;;;;5047914;28;20510;-78
2023/07/30 06:45:14;;;;;;;18.30;3.55;;;17.50;99.90;;;;;;5059527;28;20104;-82
2023/07/30 06:47:42;;;;;;;14.10;4.25;;;17.60;99.90;;;;;;5057774;28;20867;-78
2023/07/30 06:50:08;;;;;;;15.82;3.97;;;;;;;;;;5044650;28;20055;-79
2023/07/30 06:52:35;;;;;;;12.90;2.85;;;17.50;99.90;;;;;;5054672;28;20387;-78
2023/07/30 06:55:02;;;;;;;16.70;3.65;;;17.60;99.90;;;;;;5037593;28;20056;-77
2023/07/30 06:57:29;;;;;;;21.40;4.97;;;;;;;;;;5060222;28;20056;-79
2023/07/30 06:59:55;;;;;;;24.45;4.30;;;;;;;;;;5055448;28;20502;-80
2023/07/30 07:02:21;;;;;;;13.95;4.15;;;;;;;;;;5059572;28;20052;-80
2023/07/30 07:04:47;;;;;;;13.45;3.53;;;;;;;;;;5060338;28;20052;-80
2023/07/30 07:07:13;;;;;;;15.60;4.03;;;;;;;;;;5060543;28;20044;-79
2023/07/30 07:09:39;;;;;;;15.45;3.63;;;;;;;;;;5058759;28;20049;-79
2023/07/30 07:12:06;;;;;;;14.27;3.50;;;19.90;99.90;;;;;;5052728;28;20478;-79
2023/07/30 07:14:32;;;;;;;20.65;3.40;;;;;;;;;;5059227;28;20104;-79
2023/07/30 07:16:58;;;;;;;14.35;3.03;;;;;;;;;;5058216;28;20559;-80
2023/07/30 07:19:24;;;;;;;15.60;3.60;;;;;;;;;;5058829;28;20048;-79
2023/07/30 07:21:51;;;;;;;17.83;2.60;;;;;;;;;;5033581;28;20057;-78
2023/07/30 07:24:17;;;;;;;16.88;2.90;;;;;;;;;;5054734;28;20059;-79
2023/07/30 07:26:43;;;;;;;14.10;2.55;;;;;;;;;;5037881;28;20135;-82
2023/07/30 07:29:09;;;;;;;14.48;3.53;;;22.10;99.90;;;;;;5058679;28;20067;-76
2023/07/30 07:31:35;;;;;;;11.48;2.45;;;;;;;;;;5039496;28;20115;-80
2023/07/30 07:34:02;;;;;;;13.07;1.88;;;;;;;;;;5059251;28;20064;-80
2023/07/30 07:36:28;;;;;;;9.80;1.73;;;;;;;;;;5042715;28;20729;-80
2023/07/30 07:38:54;;;;;;;10.85;1.55;;;;;;;;;;5043274;28;20628;-78
2023/07/30 07:41:20;;;;;;;12.18;2.08;;;;;;;;;;5048796;28;20060;-79
2023/07/30 07:43:47;;;;;;;12.77;1.80;;;26.40;99.90;;;;;;5054699;28;20044;-79
2023/07/30 07:46:13;;;;;;;6.65;1.55;;;;;;;;;;5035119;28;20045;-79
2023/07/30 07:48:41;;;;;;;6.90;1.40;;;22.90;99.90;;;;;;5053066;28;20040;-80
2023/07/30 07:51:07;;;;;;;9.40;1.48;;;;;;;;;;5054463;28;20052;-81
2023/07/30 07:53:33;;;;;;;9.43;1.58;;;;;;;;;;5054619;28;20055;-79
2023/07/30 07:55:59;;;;;;;10.77;1.50;;;;;;;;;;5052925;28;20074;-80
2023/07/30 07:58:25;;;;;;;9.70;1.38;;;;;;;;;;5057605;28;20095;-80
2023/07/30 08:00:55;;;;;;;9.25;2.63;;;23.60;99.90;;;;;;5056454;28;20045;-79
2023/07/30 08:03:21;;;;;;;7.30;1.13;;;;;;;;;;5054626;28;20056;-78
2023/07/30 08:05:48;;;;;;;14.10;2.08;;;24.20;98.40;;;;;;5032851;28;20157;-78
2023/07/30 08:08:14;;;;;;;10.57;1.13;;;;;;;;;;5038549;28;20044;-79
2023/07/30 08:10:43;;;;;;;11.25;1.35;;;;;;;;;;5044457;28;20106;-78
2023/07/30 08:13:09;;;;;;;13.02;1.67;;;;;;;;;;5053228;28;20052;-77
2023/07/30 08:15:36;;;;;;;9.25;1.10;;;;;;;;;;5032961;28;20102;-80
2023/07/30 08:18:02;;;;;;;6.97;1.20;;;;;;;;;;5054568;28;20045;-79
2023/07/30 08:20:28;;;;;;;10.52;1.58;;;;;;;;;;5041561;28;20044;-80
2023/07/30 08:22:54;;;;;;;7.80;1.08;;;;;;;;;;5053710;28;20048;-79
2023/07/30 08:25:20;;;;;;;7.68;1.42;;;;;;;;;;5045587;28;20049;-79
2023/07/30 08:27:46;;;;;;;11.48;1.20;;;;;;;;;;5048164;28;20044;-78
2023/07/30 08:30:12;;;;;;;8.05;1.10;;;28.80;93.00;;;;;;5057633;28;20059;-79
2023/07/30 08:32:39;;;;;;;13.32;1.60;;;;;;;;;;5051119;28;20044;-80
2023/07/30 08:35:05;;;;;;;5.97;0.88;;;29.60;90.50;;;;;;5051305;28;20041;-79
2023/07/30 08:37:31;;;;;;;8.68;1.00;;;;;;;;;;5042867;28;20978;-77
2023/07/30 08:39:57;;;;;;;6.15;1.02;;;;;;;;;;5042110;28;20060;-77
2023/07/30 08:42:23;;;;;;;6.95;0.90;;;;;;;;;;5038846;28;20077;-79
2023/07/30 08:44:49;;;;;;;6.35;0.90;;;;;;;;;;5037616;28;20063;-79
2023/07/30 08:47:15;;;;;;;7.88;1.73;;;25.00;92.80;;;;;;5034113;28;20082;-81
2023/07/30 08:49:41;;;;;;;17.17;1.90;;;;;;;;;;5047669;28;20048;-83
2023/07/30 08:52:09;;;;;;;5.00;0.82;;;21.30;94.40;;;;;;5043925;28;20040;-83
2023/07/30 08:54:37;;;;;;;3.38;0.55;;;19.90;96.90;;;;;;5049527;28;20060;-80
2023/07/30 08:57:04;;;;;;;8.27;1.88;;;18.90;99.90;;;;;;5055169;28;20072;-79
2023/07/30 08:59:44;;;;;;;4.45;1.02;;;18.20;99.90;;;;;;5043167;28;20052;-82
2023/07/30 09:02:17;;;;;;;4.43;0.70;;;17.70;99.90;;;;;;5024494;28;20045;-81
2023/07/30 09:04:48;;;;;;;6.75;1.00;;;17.30;99.90;;;;;;5053872;28;20134;-80
2023/07/30 09:07:14;;;;;;;6.18;2.28;;;;;;;;;;5048668;28;20806;-79
2023/07/30 09:09:41;;;;;;;6.47;0.98;;;16.80;99.90;;;;;;5045793;28;20056;-77
2023/07/30 09:12:14;;;;;;;6.30;1.38;;;16.70;99.90;;;;;;5050033;28;20127;-80
2023/07/30 09:14:40;;;;;;;6.03;1.15;;;;;;;;;;5050341;28;20052;-79
2023/07/30 09:17:06;;;;;;;5.93;1.02;;;;;;;;;;5055975;28;20123;-79
2023/07/30 09:19:35;;;;;;;5.22;0.80;;;16.30;99.90;;;;;;5058476;28;20128;-79
2023/07/30 09:22:06;;;;;;;4.97;1.33;;;16.20;99.90;;;;;;5058258;28;20052;-78
2023/07/30 09:24:33;;;;;;;6.68;0.98;;;;;;;;;;5059472;28;20907;-78
2023/07/30 09:27:02;;;;;;;6.93;1.08;;;16.00;99.90;;;;;;5056604;28;20151;-78
2023/07/30 09:29:28;;;;;;;7.40;1.23;;;;;;;;;;5060884;28;20843;-79
2023/07/30 09:31:55;;;;;;;7.07;1.17;;;15.90;99.90;;;;;;5061588;28;20048;-78
2023/07/30 09:34:23;;;;;;;9.70;1.50;;;15.80;99.90;;;;;;5044722;28;20087;-76
2023/07/30 09:36:54;;;;;;;5.40;1.02;;;15.90;99.90;;;;;;4697089;28;9999884;-75
2023/07/30 09:39:21;;;;;;;6.15;1.20;;;;;;;;;;5060587;28;20349;-75
2023/07/30 09:41:47;;;;;;;9.23;1.35;;;;;;;;;;5061058;28;20428;-78
2023/07/30 09:44:15;;;;;;;9.32;1.15;;;;;;;;;;5063082;28;20052;-81
2023/07/30 09:46:46;;;;;;;8.88;1.17;;;15.80;99.90;;;;;;5045728;28;20558;-81
2023/07/30 09:49:12;;;;;;;10.50;1.40;;;;;;;;;;5062764;28;20040;-77
2023/07/30 09:51:42;;;;;;;6.40;2.00;;;15.80;99.90;;;;;;5060830;28;20870;-84
2023/07/30 09:54:11;;;;;;;7.95;1.20;;;15.70;99.90;;;;;;5059952;28;20048;-82
2023/07/30 09:56:38;;;;;;;6.50;1.10;;;15.50;99.90;;;;;;5061641;28;20048;-81
2023/07/30 09:59:08;;;;;;;5.85;0.90;;;15.30;99.90;;;;;;5045855;28;20990;-80
2023/07/30 10:01:46;;;;;;;5.93;1.08;;;15.20;99.90;;;;;;5061584;28;20052;-79
2023/07/30 10:04:12;;;;;;;7.28;0.82;;;;;;;;;;5045467;28;20061;-77
2023/07/30 10:06:44;;;;;;;7.38;1.35;;;15.00;99.90;;;;;;5058790;28;20127;-78
2023/07/30 10:09:11;;;;;;;3.50;0.70;;;15.10;99.90;;;;;;5062217;28;20048;-79
2023/07/30 10:11:37;;;;;;;6.43;0.82;;;;;;;;;;5060703;28;20838;-76
2023/07/30 10:14:04;;;;;;;10.10;0.98;;;;;;;;;;5062995;28;20055;-82
2023/07/30 10:16:30;;;;;;;8.32;1.02;;;;;;;;;;5045063;28;20044;-78
2023/07/30 10:18:59;;;;;;;8.43;1.08;;;15.30;99.90;;;;;;5062084;28;20186;-80
2023/07/30 10:21:29;;;;;;;4.78;1.10;;;15.50;99.90;;;;;;5058482;28;20059;-77
2023/07/30 10:24:05;;;;;;;7.03;1.20;;;15.70;99.90;;;;;;5040010;28;20691;-76
2023/07/30 10:26:33;;;;;;;10.23;1.50;;;15.80;99.90;;;;;;5056861;28;20728;-77
2023/07/30 10:29:20;;;;;;;5.55;1.48;;;16.00;99.90;;;;;;5058770;28;20052;-77
2023/07/30 10:31:54;;;;;;;4.07;1.33;;;16.10;99.90;;;;;;5044020;28;20048;-75
2023/07/30 10:34:20;;;;;;;9.43;1.50;;;;;;;;;;5061078;28;20054;-75
2023/07/30 10:36:47;;;;;;;7.88;2.03;;;;;;;;;;5058608;28;20920;-75
2023/07/30 10:39:17;;;;;;;8.23;2.53;;;16.40;99.90;;;;;;5060470;28;20052;-77
2023/07/30 10:41:51;;;;;;;7.18;2.10;;;16.90;99.90;;;;;;5041837;28;20098;-77
2023/07/30 10:44:33;;;;;;;7.25;1.83;;;17.90;99.90;;;;;;5057485;28;20206;-78
2023/07/30 10:47:01;;;;;;;15.15;3.15;;;18.30;99.90;;;;;;5059008;28;20063;-78
2023/07/30 10:49:28;;;;;;;7.72;1.75;;;;;;;;;;5056543;28;20044;-78
2023/07/30 10:51:57;;;;;;;11.48;2.40;;;18.90;99.90;;;;;;5062186;28;20423;-80
2023/07/30 10:54:24;;;;;;;4.93;1.50;;;;;;;;;;5044568;28;20557;-81
2023/07/30 10:56:50;;;;;;;14.77;2.78;;;;;;;;;;5061840;28;20397;-82
2023/07/30 10:59:18;;;;;;;10.30;1.60;;;18.90;99.90;;;;;;5061333;28;20047;-81
2023/07/30 11:01:45;;;;;;;8.95;1.55;;;18.80;99.90;;;;;;5046109;28;20048;-85
2023/07/30 11:04:16;;;;;;;7.40;1.40;;;18.80;99.90;;;;;;5040960;28;20051;-84
2023/07/30 11:06:50;;;;;;;8.57;2.00;;;18.50;99.90;;;;;;5056407;28;20139;-91
2023/07/30 11:09:25;;;;;;;9.57;1.80;;;18.90;99.90;;;;;;5039803;28;20053;-83
2023/07/30 11:11:53;;;;;;;6.95;1.30;;;19.10;99.90;;;;;;5058898;28;20052;-85
2023/07/30 11:14:25;;;;;;;9.18;1.42;;;19.40;99.90;;;;;;5046442;28;20330;-84
2023/07/30 11:16:52;;;;;;;;;;;19.40;99.90;;;;;;5063048;28;20497;-84
2023/07/30 11:19:18;;;;;;;9.55;1.50;;;;;;;;;;5063040;28;19923;-86
2023/07/30 11:21:48;;;;;;;6.78;1.30;;;19.60;99.90;;;;;;5059204;28;20044;-87
2023/07/30 11:24:15;;;;;;;8.05;1.00;;;;;;;;;;5057663;28;20058;-82
2023/07/30 11:26:41;;;;;;;9.25;1.08;;;;;;;;;;5058526;28;20051;-84
2023/07/30 11:29:25;;;;;;;4.95;1.08;;;19.70;99.90;;;;;;5058960;28;20044;-82
2023/07/30 11:31:51;;;;;;;7.80;1.77;;;;;;;;;;5044349;28;20573;-84
2023/07/30 11:34:18;;;;;;;5.30;0.70;;;;;;;;;;5060508;28;20067;-85
2023/07/30 11:36:45;;;;;;;8.65;1.05;;;19.50;99.90;;;;;;5061503;28;20055;-82
2023/07/30 11:39:11;;;;;;;7.70;1.15;;;;;;;;;;5070731;28;20060;-81
2023/07/30 11:41:37;;;;;;;8.52;1.02;;;;;;;;;;5070310;28;20084;-84
2023/07/30 11:44:04;;;;;;;8.88;1.88;;;;;;;;;;5069288;28;20048;-82
2023/07/30 11:46:32;;;;;;;5.10;0.80;;;;;;;;;;5068348;28;20040;-82
2023/07/30 11:49:21;;;;;;;11.48;1.40;;;19.70;99.90;;;;;;5064216;28;20698;-84
2023/07/30 11:51:48;;;;;;;6.43;1.23;;;;;;;;;;5065763;28;20154;-83
2023/07/30 11:54:22;;;;;;;8.38;1.35;;;19.80;99.90;;;;;;5066367;28;20054;-81
2023/07/30 11:56:54;;;;;;;7.88;1.58;;;19.80;99.90;;;;;;5066217;28;20048;-85
2023/07/30 11:59:21;;;;;;;7.88;1.02;;;19.60;99.90;;;;;;5048349;28;20048;-82
2023/07/30 12:01:48;;;;;;;5.85;0.63;;;;;;;;;;5044124;28;20048;-81
2023/07/30 12:04:14;;;;;;;8.20;0.88;;;;;;;;;;5063317;28;20048;-78
2023/07/30 12:06:51;;;;;;;9.57;1.48;;;19.40;99.90;;;;;;5064456;28;20748;-81
2023/07/30 12:09:22;;;;;;;6.55;0.68;;;19.60;99.90;;;;;;5063687;28;20390;-82
2023/07/30 12:11:54;;;;;;;6.93;1.25;;;19.60;99.90;;;;;;5047642;28;20047;-85
2023/07/30 12:14:43;;;;;;;5.60;0.70;;;19.70;99.90;;;;;;5064450;28;20050;-79
2023/07/30 12:17:09;;;;;;;4.40;1.02;;;;;;;;;;5059137;28;20123;-79
2023/07/30 12:19:38;;;;;;;5.57;0.90;;;;;;;;;;5043589;28;20052;-78
2023/07/30 12:22:04;;;;;;;5.72;0.55;;;;;;;;;;5061004;28;20051;-82
2023/07/30 12:24:30;;;;;;;7.88;0.73;;;;;;;;;;5046342;28;20060;-81
2023/07/30 12:26:56;;;;;;;7.13;0.77;;;;;;;;;;5061341;28;20142;-82
2023/07/30 12:29:23;;;;;;;5.30;0.40;;;;;;;;;;5063447;28;20048;-79
2023/07/30 12:31:51;;;;;;;7.40;0.73;;;;;;;;;;5041448;28;20056;-78
2023/07/30 12:34:17;;;;;;;7.45;0.55;;;;;;;;;;5061652;28;20165;-81
2023/07/30 12:36:43;;;;;;;4.65;0.52;;;;;;;;;;5062436;28;20669;-82
2023/07/30 12:39:10;;;;;;;4.97;0.70;;;;;;;;;;5057831;28;20139;-81
2023/07/30 12:41:36;;;;;;;8.45;1.38;;;;;;;;;;5043235;28;20076;-87
2023/07/30 12:44:04;;;;;;;6.18;0.57;;;;;;;;;;5039264;28;20052;-84
2023/07/30 12:46:32;;;;;;;4.57;1.15;;;;;;;;;;5058470;28;20397;-81
2023/07/30 12:49:02;;;;;;;7.95;1.05;;;;;;;;;;5056280;28;20044;-84
2023/07/30 12:51:29;;;;;;;5.75;0.50;;;;;;;;;;5058214;28;20041;-86
2023/07/30 12:53:55;;;;;;;7.07;1.48;;;;;;;;;;5059862;28;20052;-81
2023/07/30 12:56:23;;;;;;;5.88;1.10;;;18.50;99.90;;;;;;5054945;28;20083;-83
2023/07/30 12:58:49;;;;;;;8.13;1.00;;;;;;;;;;5054769;28;20125;-83
2023/07/30 13:01:15;;;;;;;3.65;0.40;;;;;;;;;;5044484;28;20082;-82
2023/07/30 13:03:46;;;;;;;4.70;0.70;;;;;;;;;;5057925;28;20146;-82
2023/07/30 13:06:12;;;;;;;5.07;0.68;;;;;;;;;;5061253;28;20052;-81
2023/07/30 13:08:41;;;;;;;6.68;1.10;;;18.60;99.90;;;;;;5060388;28;20171;-84
2023/07/30 13:11:08;;;;;;;7.32;0.90;;;;;;;;;;5060395;28;20131;-86
2023/07/30 13:13:34;;;;;;;6.18;1.48;;;;;;;;;;5061663;28;20055;-80
2023/07/30 13:16:02;;;;;;;4.30;0.60;;;19.00;99.90;;;;;;5040148;28;20749;-78
2023/07/30 13:18:31;;;;;;;5.20;0.50;;;19.20;99.90;;;;;;5060486;28;20052;-83
2023/07/30 13:20:57;;;;;;;3.15;0.50;;;;;;;;;;5061827;28;20110;-82
2023/07/30 13:23:28;;;;;;;2.65;0.50;;;;;;;;;;5063310;28;20051;-83
2023/07/30 13:25:54;;;;;;;5.59;0.49;;;;;;;;;;4709192;28;10000525;-83
2023/07/30 13:28:21;;;;;;;4.82;0.82;;;;;;;;;;5039644;28;20056;-82
2023/07/30 13:30:47;;;;;;;4.63;0.65;;;;;;;;;;5042979;28;20052;-82
2023/07/30 13:33:13;;;;;;;7.10;2.67;;;;;;;;;;5043862;28;20051;-82
2023/07/30 13:35:39;;;;;;;5.68;0.47;;;;;;;;;;5042266;28;20055;-81
2023/07/30 13:38:05;;;;;;;3.90;0.50;;;;;;;;;;5052229;28;20048;-83
2023/07/30 13:40:31;;;;;;;3.70;0.50;;;;;;;;;;5041523;28;20111;-80
2023/07/30 13:42:58;;;;;;;7.38;0.90;;;;;;;;;;5056452;28;20079;-85
2023/07/30 13:45:24;;;;;;;6.35;0.70;;;;;;;;;;5055688;28;20048;-83
2023/07/30 13:47:50;;;;;;;6.38;0.70;;;;;;;;;;5040474;28;20044;-81
2023/07/30 13:50:16;;;;;;;7.75;0.68;;;;;;;;;;5051540;28;20100;-83
2023/07/30 13:52:42;;;;;;;3.60;0.47;;;;;;;;;;5042167;28;20048;-84
2023/07/30 13:55:08;;;;;;;9.35;0.93;;;;;;;;;;5056578;28;20463;-81
2023/07/30 13:57:34;;;;;;;6.18;0.60;;;;;;;;;;5051915;28;20107;-83
2023/07/30 14:00:01;;;;;;;5.78;0.60;;;;;;;;;;5054455;28;20077;-82